Time,TemperatureF,DewpointF,PressureIn,WindDirection,WindDirectionDegrees,WindSpeedMPH,WindSpeedGustMPH,Humidity,HourlyPrecipIn,Conditions,Clouds,dailyrainin,SolarRadiationWatts/m^2,SoftwareType,DateUTC
2013-05-15 00:01:00,51.0,22.0,-100.00,North,1,4.0,12.0,32,0.00,,,0.00,2.000000,,2013-05-15 07:01:00,
2013-05-15 00:11:00,51.0,22.0,-100.00,North,1,4.0,12.0,32,0.00,,,0.00,2.000000,,2013-05-15 07:11:00,
2013-05-15 00:32:00,49.0,23.0,-100.00,North,2,3.0,6.0,35,0.00,,,0.00,2.000000,,2013-05-15 07:32:00,
2013-05-15 00:42:00,49.0,23.0,-100.00,North,2,3.0,6.0,35,0.00,,,0.00,2.000000,,2013-05-15 07:42:00,
2013-05-15 00:52:00,49.0,23.0,-100.00,North,2,3.0,6.0,35,0.00,,,0.00,2.000000,,2013-05-15 07:52:00,
2013-05-15 01:02:00,49.0,23.0,-100.00,North,2,3.0,6.0,35,0.00,,,0.00,2.000000,,2013-05-15 08:02:00,
2013-05-15 01:12:00,49.0,23.0,-100.00,North,2,3.0,6.0,35,0.00,,,0.00,2.000000,,2013-05-15 08:12:00,
2013-05-15 01:42:00,55.0,25.0,-100.00,North,2,5.0,11.0,31,0.00,,,0.00,2.000000,,2013-05-15 08:42:00,
2013-05-15 01:53:00,55.0,25.0,-100.00,North,2,5.0,11.0,31,0.00,,,0.00,2.000000,,2013-05-15 08:53:00,
2013-05-15 02:01:00,55.0,25.0,-100.00,North,2,5.0,11.0,31,0.00,,,0.00,2.000000,,2013-05-15 09:01:00,
2013-05-15 02:11:00,55.0,25.0,-100.00,North,2,5.0,11.0,31,0.00,,,0.00,2.000000,,2013-05-15 09:11:00,
2013-05-15 02:33:00,50.0,24.0,-100.00,North,2,4.0,10.0,36,0.00,,,0.00,2.000000,,2013-05-15 09:33:00,
2013-05-15 02:42:00,50.0,24.0,-100.00,North,2,4.0,10.0,36,0.00,,,0.00,2.000000,,2013-05-15 09:42:00,
2013-05-15 02:53:00,50.0,24.0,-100.00,North,2,4.0,10.0,36,0.00,,,0.00,2.000000,,2013-05-15 09:53:00,
2013-05-15 03:02:00,50.0,24.0,-100.00,North,2,4.0,10.0,36,0.00,,,0.00,2.000000,,2013-05-15 10:02:00,
2013-05-15 03:12:00,50.0,24.0,-100.00,North,2,4.0,10.0,36,0.00,,,0.00,2.000000,,2013-05-15 10:12:00,
2013-05-15 03:32:00,54.0,26.0,-100.00,North,2,5.0,9.0,34,0.00,,,0.00,2.000000,,2013-05-15 10:32:00,
2013-05-15 03:42:00,54.0,26.0,-100.00,North,2,5.0,9.0,34,0.00,,,0.00,2.000000,,2013-05-15 10:42:00,
2013-05-15 03:52:00,54.0,26.0,-100.00,North,2,5.0,9.0,34,0.00,,,0.00,2.000000,,2013-05-15 10:52:00,
2013-05-15 04:06:00,54.0,26.0,-100.00,North,2,5.0,9.0,34,0.00,,,0.00,2.000000,,2013-05-15 11:06:00,
2013-05-15 04:14:00,54.0,26.0,-100.00,North,2,5.0,9.0,34,0.00,,,0.00,2.000000,,2013-05-15 11:14:00,
2013-05-15 04:39:00,52.0,26.0,-100.00,North,2,3.0,7.0,36,0.00,,,0.00,2.000000,,2013-05-15 11:39:00,
2013-05-15 04:50:00,52.0,26.0,-100.00,North,2,3.0,7.0,36,0.00,,,0.00,2.000000,,2013-05-15 11:50:00,
2013-05-15 04:57:00,52.0,26.0,-100.00,North,2,3.0,7.0,36,0.00,,,0.00,2.000000,,2013-05-15 11:57:00,
2013-05-15 05:06:00,52.0,26.0,-100.00,North,2,3.0,7.0,36,0.00,,,0.00,2.000000,,2013-05-15 12:06:00,
2013-05-15 05:12:00,52.0,26.0,-100.00,North,2,3.0,7.0,36,0.00,,,0.00,2.000000,,2013-05-15 12:12:00,
2013-05-15 05:49:00,53.0,29.0,-100.00,North,2,6.0,8.0,40,-99.99,,,0.00,2.000000,,2013-05-15 12:49:00,
2013-05-15 05:56:00,53.0,29.0,-100.00,North,2,6.0,8.0,40,-99.99,,,0.00,2.000000,,2013-05-15 12:56:00,
2013-05-15 06:05:00,53.0,29.0,-100.00,North,2,6.0,8.0,40,-99.99,,,0.00,2.000000,,2013-05-15 13:05:00,
2013-05-15 06:14:00,53.0,29.0,-100.00,North,2,6.0,8.0,40,-99.99,,,0.00,2.000000,,2013-05-15 13:14:00,
2013-05-15 06:48:00,53.0,33.0,-100.00,North,2,5.0,9.0,46,0.00,,,0.00,8.000000,,2013-05-15 13:48:00,
2013-05-15 06:57:00,53.0,33.0,-100.00,North,2,5.0,9.0,46,0.00,,,0.00,8.000000,,2013-05-15 13:57:00,
2013-05-15 07:03:00,53.0,33.0,-100.00,North,2,5.0,9.0,46,0.00,,,0.00,8.000000,,2013-05-15 14:03:00,
2013-05-15 07:50:00,58.0,33.0,-100.00,North,2,6.0,9.0,39,0.00,,,0.00,142.000000,,2013-05-15 14:50:00,
2013-05-15 08:05:00,58.0,33.0,-100.00,North,2,6.0,9.0,39,0.00,,,0.00,142.000000,,2013-05-15 15:05:00,
2013-05-15 08:12:00,58.0,33.0,-100.00,North,2,6.0,9.0,39,0.00,,,0.00,142.000000,,2013-05-15 15:12:00,
2013-05-15 08:48:00,61.0,34.0,-100.00,North,1,7.0,12.0,36,0.00,,,0.00,387.000000,,2013-05-15 15:48:00,
2013-05-15 08:58:00,61.0,34.0,-100.00,North,1,7.0,12.0,36,0.00,,,0.00,387.000000,,2013-05-15 15:58:00,
2013-05-15 09:05:00,61.0,34.0,-100.00,North,1,7.0,12.0,36,0.00,,,0.00,387.000000,,2013-05-15 16:05:00,
2013-05-15 09:50:00,66.0,38.0,-100.00,North,1,7.0,15.0,35,0.00,,,0.00,625.000000,,2013-05-15 16:50:00,
2013-05-15 09:56:00,66.0,38.0,-100.00,North,1,7.0,15.0,35,0.00,,,0.00,625.000000,,2013-05-15 16:56:00,
2013-05-15 10:13:00,66.0,38.0,-100.00,North,1,7.0,15.0,35,0.00,,,0.00,625.000000,,2013-05-15 17:13:00,
2013-05-15 10:48:00,69.0,36.0,-100.00,North,0,6.0,11.0,30,0.00,,,0.00,836.000000,,2013-05-15 17:48:00,
2013-05-15 10:57:00,69.0,36.0,-100.00,North,0,6.0,11.0,30,0.00,,,0.00,836.000000,,2013-05-15 17:57:00,
2013-05-15 11:48:00,71.0,37.0,-100.00,North,0,5.0,12.0,29,0.00,,,0.00,1003.000000,,2013-05-15 18:48:00,
2013-05-15 11:55:00,71.0,37.0,-100.00,North,0,5.0,12.0,29,0.00,,,0.00,1003.000000,,2013-05-15 18:55:00,
2013-05-15 12:06:00,71.0,37.0,-100.00,North,0,5.0,12.0,29,0.00,,,0.00,1003.000000,,2013-05-15 19:06:00,
2013-05-15 12:13:00,71.0,37.0,-100.00,North,0,5.0,12.0,29,0.00,,,0.00,1003.000000,,2013-05-15 19:13:00,
2013-05-15 12:48:00,62.0,42.0,-100.00,North,0,7.0,10.0,47,0.00,,,-99.99,1104.000000,,2013-05-15 19:48:00,
2013-05-15 12:56:00,62.0,42.0,-100.00,North,0,7.0,10.0,47,0.00,,,-99.99,1104.000000,,2013-05-15 19:56:00,
2013-05-15 13:03:00,62.0,42.0,-100.00,North,0,7.0,10.0,47,0.00,,,-99.99,1104.000000,,2013-05-15 20:03:00,
2013-05-15 13:12:00,62.0,42.0,-100.00,North,0,7.0,10.0,47,0.00,,,-99.99,1104.000000,,2013-05-15 20:12:00,
2013-05-15 13:47:00,62.0,43.0,-100.00,North,0,7.0,12.0,50,0.00,,,0.00,1153.000000,,2013-05-15 20:47:00,
2013-05-15 14:04:00,62.0,43.0,-100.00,North,0,7.0,12.0,50,0.00,,,0.00,1153.000000,,2013-05-15 21:04:00,
2013-05-15 14:13:00,62.0,43.0,-100.00,North,0,7.0,12.0,50,0.00,,,0.00,1153.000000,,2013-05-15 21:13:00,
2013-05-15 14:15:00,62.0,43.0,-100.00,North,0,9.0,14.0,49,0.00,,,0.00,1031.000000,,2013-05-15 21:15:00,
2013-05-15 14:52:00,62.0,43.0,-100.00,North,0,9.0,14.0,49,0.00,,,0.00,1031.000000,,2013-05-15 21:52:00,
2013-05-15 14:59:00,62.0,43.0,-100.00,North,0,9.0,14.0,49,0.00,,,0.00,1031.000000,,2013-05-15 21:59:00,
2013-05-15 15:41:00,62.0,42.0,-100.00,North,0,11.0,15.0,47,0.00,,,0.00,1006.000000,,2013-05-15 22:41:00,
2013-05-15 15:51:00,62.0,42.0,-100.00,North,0,11.0,15.0,47,0.00,,,0.00,1006.000000,,2013-05-15 22:51:00,
2013-05-15 16:12:00,62.0,42.0,-100.00,North,0,11.0,15.0,47,0.00,,,0.00,1006.000000,,2013-05-15 23:12:00,
2013-05-15 16:50:00,61.0,41.0,-100.00,North,0,11.0,16.0,48,0.00,,,0.00,824.000000,,2013-05-15 23:50:00,
2013-05-15 17:03:00,61.0,41.0,-100.00,North,0,11.0,16.0,48,0.00,,,0.00,824.000000,,2013-05-16 00:03:00,
2013-05-15 17:14:00,61.0,41.0,-100.00,North,0,11.0,16.0,48,0.00,,,0.00,824.000000,,2013-05-16 00:14:00,
2013-05-15 17:51:00,59.0,43.0,-100.00,North,0,12.0,18.0,55,0.00,,,0.00,667.000000,,2013-05-16 00:51:00,
2013-05-15 17:57:00,59.0,43.0,-100.00,North,0,12.0,18.0,55,0.00,,,0.00,667.000000,,2013-05-16 00:57:00,
2013-05-15 18:05:00,59.0,43.0,-100.00,North,0,12.0,18.0,55,0.00,,,0.00,667.000000,,2013-05-16 01:05:00,
2013-05-15 18:13:00,59.0,43.0,-100.00,North,0,12.0,18.0,55,0.00,,,0.00,667.000000,,2013-05-16 01:13:00,
2013-05-15 18:49:00,56.0,43.0,-100.00,North,1,11.0,15.0,61,0.00,,,0.00,396.000000,,2013-05-16 01:49:00,
2013-05-15 18:58:00,56.0,43.0,-100.00,North,1,11.0,15.0,61,0.00,,,0.00,396.000000,,2013-05-16 01:58:00,
2013-05-15 19:04:00,56.0,43.0,-100.00,North,1,11.0,15.0,61,0.00,,,0.00,396.000000,,2013-05-16 02:04:00,
2013-05-15 19:13:00,56.0,43.0,-100.00,North,1,11.0,15.0,61,0.00,,,0.00,396.000000,,2013-05-16 02:13:00,
2013-05-15 20:03:00,52.0,45.0,-100.00,North,1,10.0,14.0,76,0.00,,,0.00,73.000000,,2013-05-16 03:03:00,
2013-05-15 20:13:00,52.0,45.0,-100.00,North,1,10.0,14.0,76,0.00,,,0.00,73.000000,,2013-05-16 03:13:00,
2013-05-15 20:46:00,53.0,40.0,-100.00,North,1,8.0,13.0,62,0.00,,,0.00,9.000000,,2013-05-16 03:46:00,
2013-05-15 20:56:00,53.0,40.0,-100.00,North,1,8.0,13.0,62,0.00,,,0.00,9.000000,,2013-05-16 03:56:00,
2013-05-15 21:02:00,53.0,40.0,-100.00,North,1,8.0,13.0,62,0.00,,,0.00,9.000000,,2013-05-16 04:02:00,
2013-05-15 21:12:00,53.0,40.0,-100.00,North,1,8.0,13.0,62,0.00,,,0.00,9.000000,,2013-05-16 04:12:00,
2013-05-15 21:42:00,54.0,40.0,-100.00,North,1,8.0,15.0,58,0.00,,,0.00,2.000000,,2013-05-16 04:42:00,
2013-05-15 21:53:00,54.0,40.0,-100.00,North,1,8.0,15.0,58,0.00,,,0.00,2.000000,,2013-05-16 04:53:00,
2013-05-15 22:02:00,54.0,40.0,-100.00,North,1,8.0,15.0,58,0.00,,,0.00,2.000000,,2013-05-16 05:02:00,
2013-05-15 22:12:00,54.0,40.0,-100.00,North,1,8.0,15.0,58,0.00,,,0.00,2.000000,,2013-05-16 05:12:00,
2013-05-15 22:42:00,54.0,34.0,-100.00,North,1,7.0,14.0,47,0.00,,,0.00,2.000000,,2013-05-16 05:42:00,
2013-05-15 22:52:00,54.0,34.0,-100.00,North,1,7.0,14.0,47,0.00,,,0.00,2.000000,,2013-05-16 05:52:00,
2013-05-15 23:01:00,54.0,34.0,-100.00,North,1,7.0,14.0,47,0.00,,,0.00,2.000000,,2013-05-16 06:01:00,
2013-05-15 23:12:00,54.0,34.0,-100.00,North,1,7.0,14.0,47,0.00,,,0.00,2.000000,,2013-05-16 06:12:00,
2013-05-15 23:43:00,54.0,37.0,-100.00,North,1,7.0,11.0,52,0.00,,,0.00,2.000000,,2013-05-16 06:43:00,
2013-05-15 23:53:00,54.0,37.0,-100.00,North,1,7.0,11.0,52,0.00,,,0.00,2.000000,,2013-05-16 06:53:00,